createdAt,value
2023-05-01T00:01:12.337Z,11.63
2023-05-01T00:03:40.042Z,8.57
2023-05-01T00:06:09.109Z,14.15
2023-05-01T00:08:36.799Z,9.05
2023-05-01T00:11:04.780Z,13.30
2023-05-01T00:13:32.411Z,8.25
2023-05-01T00:15:59.940Z,9.80
2023-05-01T00:18:27.455Z,7.90
2023-05-01T00:20:54.925Z,13.55
2023-05-01T00:23:23.802Z,11.52
2023-05-01T00:25:51.297Z,9.82
2023-05-01T00:28:19.263Z,10.88
2023-05-01T00:30:47.172Z,9.15
2023-05-01T00:33:14.737Z,9.73
2023-05-01T00:35:44.884Z,10.43
2023-05-01T00:38:12.615Z,8.90
2023-05-01T00:40:45.153Z,9.80
2023-05-01T00:43:12.962Z,8.32
2023-05-01T00:45:41.281Z,7.78
2023-05-01T00:48:09.006Z,9.23
2023-05-01T00:50:36.690Z,8.07
2023-05-01T00:53:04.267Z,9.05
2023-05-01T00:55:32.447Z,13.07
2023-05-01T00:58:01.535Z,7.72
2023-05-01T01:00:29.589Z,7.97
2023-05-01T01:02:57.268Z,6.78
2023-05-01T01:05:28.327Z,9.55
2023-05-01T01:08:01.474Z,8.90
2023-05-01T01:10:36.992Z,9.63
2023-05-01T01:13:11.704Z,7.70
2023-05-01T01:15:45.591Z,8.60
2023-05-01T01:18:17.917Z,10.07
2023-05-01T01:20:48.030Z,9.57
2023-05-01T01:23:45.320Z,9.10
2023-05-01T01:26:20.429Z,7.68
2023-05-01T01:29:08.642Z,8.73
2023-05-01T01:31:42.065Z,12.20
2023-05-01T01:34:14.505Z,8.98
2023-05-01T01:36:45.090Z,8.50
2023-05-01T01:39:17.387Z,9.70
2023-05-01T01:41:50.770Z,9.32
2023-05-01T01:44:23.484Z,10.77
2023-05-01T01:46:52.363Z,11.85
2023-05-01T01:49:24.366Z,8.40
2023-05-01T01:51:55.150Z,8.30
2023-05-01T01:54:26.230Z,13.10
2023-05-01T01:56:54.461Z,10.43
2023-05-01T01:59:22.781Z,9.70
2023-05-01T02:01:51.235Z,10.90
2023-05-01T02:04:19.287Z,9.13
2023-05-01T02:06:48.984Z,13.95
2023-05-01T02:09:17.709Z,8.25
2023-05-01T02:11:46.408Z,12.02
2023-05-01T02:14:14.499Z,7.32
2023-05-01T02:16:42.900Z,8.23
2023-05-01T02:19:10.580Z,10.63
2023-05-01T02:21:38.255Z,6.75
2023-05-01T02:24:08.316Z,10.35
2023-05-01T02:26:41.657Z,6.38
2023-05-01T02:29:09.352Z,8.57
2023-05-01T02:31:36.980Z,10.90
2023-05-01T02:34:04.461Z,11.18
2023-05-01T02:36:33.338Z,8.25
2023-05-01T02:39:00.872Z,8.88
2023-05-01T02:41:29.741Z,6.60
2023-05-01T02:44:01.574Z,9.95
2023-05-01T02:46:29.247Z,10.23
2023-05-01T02:48:58.388Z,12.95
2023-05-01T02:51:26.230Z,9.23
2023-05-01T02:53:54.066Z,9.73
2023-05-01T02:56:21.792Z,11.13
2023-05-01T02:58:50.567Z,7.38
2023-05-01T03:01:18.120Z,9.27
2023-05-01T03:03:45.701Z,7.75
2023-05-01T03:06:21.417Z,9.75
2023-05-01T03:08:48.923Z,7.75
2023-05-01T03:11:16.536Z,8.45
2023-05-01T03:13:44.663Z,7.50
2023-05-01T03:16:13.492Z,7.55
2023-05-01T03:18:40.995Z,8.25
2023-05-01T03:21:08.895Z,8.88
2023-05-01T03:23:38.303Z,7.18
2023-05-01T03:26:07.726Z,9.00
2023-05-01T03:28:35.216Z,13.38
2023-05-01T03:31:02.716Z,13.52
2023-05-01T03:33:31.656Z,9.50
2023-05-01T03:36:03.674Z,7.68
2023-05-01T03:38:31.623Z,7.80
2023-05-01T03:40:59.283Z,12.02
2023-05-01T03:43:26.887Z,7.68
2023-05-01T03:45:54.450Z,11.40
2023-05-01T03:48:22.222Z,9.13
2023-05-01T03:50:51.035Z,8.05
2023-05-01T03:53:18.574Z,7.80
2023-05-01T03:55:46.082Z,7.90
2023-05-01T03:58:13.545Z,11.18
2023-05-01T04:00:41.669Z,10.27
2023-05-01T04:03:09.254Z,7.03
2023-05-01T04:05:36.843Z,8.60
2023-05-01T04:08:06.335Z,8.38
2023-05-01T04:10:33.820Z,11.55
2023-05-01T04:13:01.470Z,12.45
2023-05-01T04:15:29.050Z,7.60
2023-05-01T04:17:56.861Z,7.82
2023-05-01T04:20:24.445Z,10.20
2023-05-01T04:22:52.076Z,14.07
2023-05-01T04:25:23.125Z,7.50
2023-05-01T04:27:50.969Z,8.77
2023-05-01T04:30:18.486Z,8.65
2023-05-01T04:32:46.196Z,7.80
2023-05-01T04:35:13.840Z,8.85
2023-05-01T04:37:41.339Z,15.48
2023-05-01T04:40:11.594Z,17.13
2023-05-01T04:42:40.734Z,15.77
2023-05-01T04:45:08.815Z,27.88
2023-05-01T04:47:36.308Z,19.08
2023-05-01T04:50:04.295Z,21.00
2023-05-01T04:52:31.818Z,17.13
2023-05-01T04:54:59.317Z,12.70
2023-05-01T04:57:27.057Z,19.83
2023-05-01T04:59:56.137Z,17.20
2023-05-01T05:02:24.232Z,29.02
2023-05-01T05:04:53.828Z,22.70
2023-05-01T05:07:21.414Z,16.23
2023-05-01T05:09:48.931Z,13.57
2023-05-01T05:12:16.464Z,34.78
2023-05-01T05:14:43.994Z,15.23
2023-05-01T05:17:12.791Z,11.68
2023-05-01T05:19:40.821Z,19.60
2023-05-01T05:22:08.321Z,11.38
2023-05-01T05:24:35.817Z,16.95
2023-05-01T05:27:04.057Z,15.70
2023-05-01T05:29:32.861Z,10.02
2023-05-01T05:32:00.470Z,12.52
2023-05-01T05:34:29.300Z,9.40
2023-05-01T05:36:56.831Z,10.57
2023-05-01T05:39:24.653Z,9.27
2023-05-01T05:41:53.791Z,16.00
2023-05-01T05:44:21.413Z,10.95
2023-05-01T05:46:48.936Z,12.38
2023-05-01T05:49:16.437Z,11.00
2023-05-01T05:51:45.355Z,10.05
2023-05-01T05:54:12.862Z,10.20
2023-05-01T05:56:40.345Z,12.68
2023-05-01T05:59:07.980Z,8.85
2023-05-01T06:01:37.234Z,7.88
2023-05-01T06:04:04.908Z,11.45
2023-05-01T06:06:32.959Z,8.32
2023-05-01T06:09:03.307Z,11.07
2023-05-01T06:11:30.826Z,12.82
2023-05-01T06:13:58.333Z,10.38
2023-05-01T06:16:26.014Z,8.82
2023-05-01T06:18:53.551Z,10.77
2023-05-01T06:21:21.287Z,11.68
2023-05-01T06:23:48.863Z,10.55
2023-05-01T06:26:17.634Z,11.00
2023-05-01T06:28:45.215Z,8.98
2023-05-01T06:31:12.746Z,9.50
2023-05-01T06:33:40.284Z,12.32
2023-05-01T06:36:08.259Z,11.85
2023-05-01T06:38:35.786Z,15.32
2023-05-01T06:41:03.294Z,17.88
2023-05-01T06:43:32.572Z,11.63
2023-05-01T06:46:00.278Z,15.95
2023-05-01T06:48:27.803Z,12.75
2023-05-01T06:50:56.627Z,18.33
2023-05-01T06:53:24.115Z,13.10
2023-05-01T06:55:51.686Z,12.10
2023-05-01T06:58:23.887Z,15.25
2023-05-01T07:00:54.419Z,16.55
2023-05-01T07:03:22.243Z,16.85
2023-05-01T07:05:49.782Z,14.80
2023-05-01T07:08:17.283Z,18.42
2023-05-01T07:10:44.893Z,14.15
2023-05-01T07:13:12.538Z,18.25
2023-05-01T07:15:40.020Z,17.63
2023-05-01T07:18:09.034Z,16.55
2023-05-01T07:20:36.826Z,16.55
2023-05-01T07:23:07.176Z,25.77
2023-05-01T07:25:36.184Z,24.55
2023-05-01T07:28:04.629Z,20.20
2023-05-01T07:30:33.157Z,23.00
2023-05-01T07:33:00.762Z,25.23
2023-05-01T07:35:29.822Z,22.40
2023-05-01T07:37:57.301Z,26.40
2023-05-01T07:40:25.005Z,19.17
2023-05-01T07:42:54.388Z,21.63
2023-05-01T07:45:22.183Z,34.15
2023-05-01T07:47:50.046Z,27.40
2023-05-01T07:50:18.002Z,26.70
2023-05-01T07:52:46.864Z,19.15
2023-05-01T07:55:14.415Z,22.33
2023-05-01T07:57:42.079Z,26.13
2023-05-01T08:00:10.638Z,23.60
2023-05-01T08:02:38.264Z,24.90
2023-05-01T08:05:06.706Z,18.88
2023-05-01T08:07:34.343Z,17.05
2023-05-01T08:10:03.316Z,21.63
2023-05-01T08:12:31.968Z,15.35
2023-05-01T08:14:59.516Z,17.95
2023-05-01T08:17:27.148Z,17.58
2023-05-01T08:19:56.641Z,33.63
2023-05-01T08:22:24.471Z,20.20
2023-05-01T08:24:52.011Z,20.00
2023-05-01T08:27:21.046Z,15.98
2023-05-01T08:29:52.447Z,15.35
2023-05-01T08:32:20.012Z,12.57
2023-05-01T08:34:47.592Z,15.35
2023-05-01T08:37:19.017Z,15.13
2023-05-01T08:39:46.554Z,12.63
2023-05-01T08:42:14.576Z,12.45
2023-05-01T08:44:43.454Z,12.45
2023-05-01T08:47:15.694Z,11.85
2023-05-01T08:49:44.145Z,37.97
2023-05-01T08:52:12.558Z,12.07
2023-05-01T08:54:43.083Z,11.75
2023-05-01T08:57:13.780Z,9.57
2023-05-01T08:59:43.093Z,16.48
2023-05-01T09:02:11.255Z,18.35
2023-05-01T09:04:40.556Z,12.90
2023-05-01T09:07:08.445Z,8.65
2023-05-01T09:09:36.682Z,10.10
2023-05-01T09:12:10.471Z,10.40
2023-05-01T09:14:38.008Z,10.25
2023-05-01T09:17:06.858Z,10.23
2023-05-01T09:19:34.387Z,9.43
2023-05-01T09:22:01.903Z,9.77
2023-05-01T09:24:29.394Z,9.43
2023-05-01T09:26:58.147Z,9.30
2023-05-01T09:29:38.674Z,8.55
2023-05-01T09:32:19.187Z,6.53
2023-05-01T09:34:47.310Z,7.00
2023-05-01T09:37:27.183Z,7.03
2023-05-01T09:40:05.588Z,8.77
2023-05-01T09:42:34.114Z,7.00
2023-05-01T09:45:02.016Z,43.65
2023-05-01T09:47:31.522Z,39.10
2023-05-01T09:50:00.539Z,37.28
2023-05-01T09:52:28.859Z,135.55
2023-05-01T09:55:16.385Z,281.77
2023-05-01T09:57:45.386Z,78.18
2023-05-01T10:00:15.518Z,226.10
2023-05-01T10:02:47.990Z,364.83
2023-05-01T10:05:16.279Z,90.25
2023-05-01T10:07:57.202Z,35.40
2023-05-01T10:10:25.015Z,40.25
2023-05-01T10:12:52.503Z,33.80
2023-05-01T10:15:26.095Z,21.83
2023-05-01T10:17:56.839Z,13.00
2023-05-01T10:20:24.407Z,13.43
2023-05-01T10:22:51.940Z,9.82
2023-05-01T10:25:20.482Z,9.50
2023-05-01T10:27:48.450Z,12.57
2023-05-01T10:30:16.461Z,9.27
2023-05-01T10:32:44.130Z,9.75
2023-05-01T10:35:16.510Z,8.52
2023-05-01T10:40:45.347Z,8.13
2023-05-01T10:43:17.405Z,10.15
2023-05-01T10:45:45.501Z,10.73
2023-05-01T10:48:13.012Z,8.15
2023-05-01T10:51:12.934Z,6.45
2023-05-01T10:53:41.293Z,9.75
2023-05-01T10:56:43.856Z,11.40
2023-05-01T10:59:12.929Z,6.63
2023-05-01T11:01:44.671Z,6.53
2023-05-01T11:04:50.766Z,6.13
2023-05-01T11:07:19.553Z,9.00
2023-05-01T11:09:49.174Z,6.68
2023-05-01T11:12:54.217Z,7.57
2023-05-01T11:15:32.419Z,5.57
2023-05-01T11:18:00.714Z,7.38
2023-05-01T11:20:54.530Z,7.40
2023-05-01T11:23:28.008Z,7.07
2023-05-01T11:26:04.604Z,7.25
2023-05-01T11:28:34.870Z,7.05
2023-05-01T11:31:03.306Z,4.53
2023-05-01T11:33:31.804Z,4.03
2023-05-01T11:36:01.104Z,8.07
2023-05-01T11:38:28.690Z,7.57
2023-05-01T11:40:59.494Z,6.30
2023-05-01T11:43:27.366Z,5.80
2023-05-01T11:46:02.258Z,9.23
2023-05-01T11:48:31.196Z,4.40
2023-05-01T11:50:58.749Z,4.93
2023-05-01T11:53:26.322Z,8.85
2023-05-01T11:55:54.467Z,6.95
2023-05-01T11:58:32.994Z,8.63
2023-05-01T12:01:01.827Z,6.80
2023-05-01T12:03:29.803Z,7.63
2023-05-01T12:05:57.432Z,8.40
2023-05-01T12:08:25.411Z,6.18
2023-05-01T12:10:53.830Z,7.20
2023-05-01T12:13:21.747Z,6.65
2023-05-01T12:15:52.447Z,7.45
2023-05-01T12:18:22.362Z,5.28
2023-05-01T12:20:52.059Z,5.78
2023-05-01T12:23:20.702Z,4.95
2023-05-01T12:25:48.208Z,3.33
2023-05-01T12:28:18.133Z,5.03
2023-05-01T12:30:46.408Z,5.20
2023-05-01T12:33:15.142Z,4.30
2023-05-01T12:35:46.570Z,7.43
2023-05-01T12:38:15.685Z,4.68
2023-05-01T12:40:53.343Z,4.28
2023-05-01T12:43:21.538Z,5.68
2023-05-01T12:45:52.954Z,6.72
2023-05-01T12:48:22.373Z,8.68
2023-05-01T12:50:54.601Z,5.88
2023-05-01T12:53:23.185Z,5.88
2023-05-01T12:55:51.762Z,4.47
2023-05-01T12:58:19.485Z,6.80
2023-05-01T13:00:49.153Z,6.22
2023-05-01T13:03:18.173Z,6.35
2023-05-01T13:05:57.972Z,4.82
2023-05-01T13:08:31.177Z,9.13
2023-05-01T13:11:00.413Z,7.47
2023-05-01T13:13:29.235Z,4.40
2023-05-01T13:16:05.942Z,4.28
2023-05-01T13:18:34.161Z,6.10
2023-05-01T13:21:10.849Z,4.07
2023-05-01T13:23:39.015Z,6.35
2023-05-01T13:26:07.391Z,4.93
2023-05-01T13:28:36.252Z,5.50
2023-05-01T13:31:04.290Z,4.63
2023-05-01T13:33:32.537Z,5.50
2023-05-01T13:36:00.808Z,5.25
2023-05-01T13:38:31.594Z,4.30
2023-05-01T13:40:59.109Z,3.67
2023-05-01T13:43:26.825Z,4.70
2023-05-01T13:45:58.955Z,4.30
2023-05-01T13:48:26.504Z,6.82
2023-05-01T13:50:53.974Z,4.90
2023-05-01T13:53:21.846Z,4.20
2023-05-01T13:55:50.650Z,5.45
2023-05-01T13:58:18.163Z,5.47
2023-05-01T14:00:45.794Z,3.75
2023-05-01T14:03:13.701Z,3.70
2023-05-01T14:05:41.238Z,5.82
2023-05-01T14:08:10.806Z,4.88
2023-05-01T14:10:38.437Z,4.90
2023-05-01T14:13:07.728Z,2.88
2023-05-01T14:15:35.271Z,2.58
2023-05-01T14:18:06.740Z,4.68
2023-05-01T14:20:34.339Z,3.42
2023-05-01T14:23:01.935Z,3.50
2023-05-01T14:25:31.272Z,3.05
2023-05-01T14:28:00.831Z,4.68
2023-05-01T14:30:33.452Z,3.50
2023-05-01T14:33:03.279Z,3.80
2023-05-01T14:35:31.171Z,4.57
2023-05-01T14:38:12.910Z,3.53
2023-05-01T14:40:41.774Z,5.03
2023-05-01T14:43:10.420Z,2.92
2023-05-01T14:45:41.846Z,3.25
2023-05-01T14:48:09.853Z,2.88
2023-05-01T14:50:37.897Z,3.50
2023-05-01T14:53:05.854Z,5.05
2023-05-01T14:55:34.739Z,3.63
2023-05-01T14:58:02.530Z,2.55
2023-05-01T15:00:30.022Z,6.40
2023-05-01T15:02:59.402Z,5.18
2023-05-01T15:05:28.346Z,3.97
2023-05-01T15:07:57.307Z,8.18
2023-05-01T15:10:24.818Z,3.67
2023-05-01T15:12:52.342Z,3.03
2023-05-01T15:15:19.946Z,6.32
2023-05-01T15:17:47.511Z,5.00
2023-05-01T15:20:16.652Z,4.70
2023-05-01T15:22:44.232Z,5.05
2023-05-01T15:25:11.867Z,5.03
2023-05-01T15:27:39.373Z,3.75
2023-05-01T15:30:10.165Z,8.82
2023-05-01T15:32:38.455Z,7.88
2023-05-01T15:35:06.446Z,9.13
2023-05-01T15:37:35.303Z,5.15
2023-05-01T15:40:04.297Z,6.07
2023-05-01T15:42:31.861Z,10.00
2023-05-01T15:45:00.185Z,3.97
2023-05-01T15:47:28.303Z,4.20
2023-05-01T15:49:56.100Z,4.53
2023-05-01T15:52:25.105Z,5.00
2023-05-01T15:54:54.922Z,3.55
2023-05-01T15:57:22.478Z,5.07
2023-05-01T15:59:53.774Z,4.28
2023-05-01T16:02:21.762Z,5.00
2023-05-01T16:04:49.649Z,4.55
2023-05-01T16:07:17.181Z,4.97
2023-05-01T16:09:44.842Z,4.90
2023-05-01T16:12:14.030Z,3.78
2023-05-01T16:14:42.090Z,5.97
2023-05-01T16:17:10.091Z,4.80
2023-05-01T16:19:37.626Z,3.67
2023-05-01T16:22:06.899Z,22.13
2023-05-01T16:24:34.541Z,12.43
2023-05-01T16:27:02.038Z,8.02
2023-05-01T16:29:33.205Z,4.25
2023-05-01T16:32:01.023Z,2.97
2023-05-01T16:34:29.010Z,11.93
2023-05-01T16:36:56.654Z,9.43
2023-05-01T16:39:24.329Z,6.88
2023-05-01T16:41:53.434Z,6.75
2023-05-01T16:44:22.149Z,6.80
2023-05-01T16:46:53.672Z,6.63
2023-05-01T16:49:21.856Z,4.55
2023-05-01T16:51:49.621Z,4.05
2023-05-01T16:54:17.336Z,3.67
2023-05-01T16:56:44.838Z,5.30
2023-05-01T16:59:12.343Z,5.35
2023-05-01T17:01:39.890Z,4.82
2023-05-01T17:04:09.925Z,3.53
2023-05-01T17:06:37.452Z,3.38
2023-05-01T17:09:04.971Z,4.20
2023-05-01T17:11:32.438Z,7.35
2023-05-01T17:13:59.957Z,7.65
2023-05-01T17:16:27.601Z,4.45
2023-05-01T17:18:55.232Z,5.80
2023-05-01T17:21:25.093Z,5.65
2023-05-01T17:23:52.715Z,9.65
2023-05-01T17:26:20.181Z,5.55
2023-05-01T17:28:49.043Z,3.95
2023-05-01T17:31:18.257Z,4.20
2023-05-01T17:33:46.824Z,6.15
2023-05-01T17:36:14.389Z,6.97
2023-05-01T17:38:43.219Z,4.68
2023-05-01T17:41:10.686Z,7.93
2023-05-01T17:43:38.418Z,5.82
2023-05-01T17:46:06.870Z,6.82
2023-05-01T17:48:34.371Z,4.80
2023-05-01T17:51:01.856Z,5.47
2023-05-01T17:53:29.360Z,4.90
2023-05-01T17:55:58.292Z,6.25
2023-05-01T17:58:25.814Z,4.45
2023-05-01T18:00:55.433Z,5.60
2023-05-01T18:03:24.069Z,4.45
2023-05-01T18:05:51.622Z,4.40
2023-05-01T18:08:19.127Z,5.75
2023-05-01T18:10:46.609Z,5.32
2023-05-01T18:13:16.730Z,7.63
2023-05-01T18:15:44.312Z,3.42
2023-05-01T18:18:12.488Z,3.83
2023-05-01T18:20:40.355Z,8.23
2023-05-01T18:23:07.914Z,2.90
2023-05-01T18:25:35.565Z,8.65
2023-05-01T18:28:03.076Z,3.20
2023-05-01T18:30:31.901Z,9.95
2023-05-01T18:32:59.475Z,5.32
2023-05-01T18:35:26.953Z,4.65
2023-05-01T18:37:54.841Z,6.68
2023-05-01T18:40:22.327Z,8.40
2023-05-01T18:42:49.816Z,8.35
2023-05-01T18:45:17.593Z,5.25
2023-05-01T18:47:46.505Z,6.03
2023-05-01T18:50:14.203Z,5.78
2023-05-01T18:52:42.703Z,6.03
2023-05-01T18:55:11.279Z,8.82
2023-05-01T18:57:41.924Z,5.88
2023-05-01T19:00:10.575Z,7.45
2023-05-01T19:02:38.090Z,4.93
2023-05-01T19:05:08.446Z,6.38
2023-05-01T19:07:36.007Z,5.90
2023-05-01T19:10:03.725Z,8.45
2023-05-01T19:12:31.228Z,4.53
2023-05-01T19:14:58.710Z,4.85
2023-05-01T19:17:27.709Z,5.60
2023-05-01T19:19:55.318Z,6.85
2023-05-01T19:22:24.202Z,7.65
2023-05-01T19:24:51.714Z,5.18
2023-05-01T19:27:19.246Z,7.50
2023-05-01T19:29:46.727Z,5.82
2023-05-01T19:32:14.436Z,9.07
2023-05-01T19:34:42.534Z,6.53
2023-05-01T19:37:10.073Z,5.65
2023-05-01T19:39:39.751Z,7.63
2023-05-01T19:42:07.361Z,5.10
2023-05-01T19:44:34.905Z,5.70
2023-05-01T19:47:02.451Z,9.18
2023-05-01T19:49:29.963Z,5.68
2023-05-01T19:51:57.616Z,7.60
2023-05-01T19:54:26.975Z,8.25
2023-05-01T19:56:55.961Z,7.45
2023-05-01T19:59:23.621Z,5.97
2023-05-01T20:01:51.628Z,8.18
2023-05-01T20:04:19.414Z,4.30
2023-05-01T20:06:47.028Z,11.15
2023-05-01T20:09:14.675Z,5.60
2023-05-01T20:11:42.175Z,5.63
2023-05-01T20:14:11.165Z,8.63
2023-05-01T20:16:38.774Z,7.60
2023-05-01T20:19:06.346Z,5.10
2023-05-01T20:21:33.920Z,5.78
2023-05-01T20:24:01.418Z,7.22
2023-05-01T20:26:28.980Z,5.43
2023-05-01T20:28:56.720Z,6.10
2023-05-01T20:31:25.604Z,9.13
2023-05-01T20:33:53.202Z,6.63
2023-05-01T20:36:20.717Z,7.65
2023-05-01T20:38:48.646Z,6.85
2023-05-01T20:41:16.151Z,4.90
2023-05-01T20:43:43.635Z,6.50
2023-05-01T20:46:11.183Z,3.78
2023-05-01T20:48:40.249Z,5.88
2023-05-01T20:51:07.728Z,5.70
2023-05-01T20:53:35.235Z,4.47
2023-05-01T20:56:02.731Z,6.53
2023-05-01T20:58:30.392Z,5.45
2023-05-01T21:00:59.166Z,4.93
2023-05-01T21:03:26.866Z,6.38
2023-05-01T21:05:59.682Z,6.18
2023-05-01T21:08:28.188Z,8.95
2023-05-01T21:10:55.903Z,9.27
2023-05-01T21:13:24.964Z,6.90
2023-05-01T21:15:52.984Z,7.60
2023-05-01T21:18:21.475Z,6.40
2023-05-01T21:20:48.995Z,8.15
2023-05-01T21:23:18.604Z,8.02
2023-05-01T21:25:46.126Z,9.05
2023-05-01T21:28:14.579Z,8.32
2023-05-01T21:30:42.266Z,6.50
2023-05-01T21:33:14.469Z,10.38
2023-05-01T21:35:43.123Z,9.52
2023-05-01T21:38:11.006Z,6.50
2023-05-01T21:40:42.347Z,11.32
2023-05-01T21:43:10.747Z,8.45
2023-05-01T21:45:41.084Z,8.57
2023-05-01T21:48:09.142Z,7.45
2023-05-01T21:50:38.017Z,6.32
2023-05-01T21:53:07.234Z,9.85
2023-05-01T21:55:34.897Z,8.18
2023-05-01T21:58:04.025Z,6.70
2023-05-01T22:00:31.757Z,6.97
2023-05-01T22:02:59.381Z,10.38
2023-05-01T22:05:30.795Z,6.70
2023-05-01T22:07:58.645Z,6.82
2023-05-01T22:10:26.295Z,7.88
2023-05-01T22:12:53.838Z,6.00
2023-05-01T22:15:22.631Z,7.47
2023-05-01T22:17:50.187Z,5.93
2023-05-01T22:20:17.804Z,8.07
2023-05-01T22:22:45.983Z,5.53
2023-05-01T22:25:13.526Z,6.13
2023-05-01T22:27:41.742Z,7.70
2023-05-01T22:30:10.241Z,8.95
2023-05-01T22:32:39.235Z,6.68
2023-05-01T22:35:08.402Z,6.72
2023-05-01T22:37:35.976Z,9.18
2023-05-01T22:40:04.109Z,6.03
2023-05-01T22:42:31.754Z,5.80
2023-05-01T22:44:59.265Z,8.25
2023-05-01T22:47:26.855Z,13.25
2023-05-01T22:49:55.663Z,6.80
2023-05-01T22:52:23.268Z,7.20
2023-05-01T22:54:52.507Z,5.78
2023-05-01T22:57:20.012Z,6.68
2023-05-01T22:59:48.165Z,5.65
2023-05-01T23:02:17.373Z,5.38
2023-05-01T23:04:45.145Z,5.07
2023-05-01T23:07:15.842Z,6.82
2023-05-01T23:09:43.328Z,7.57
2023-05-01T23:12:16.378Z,6.32
2023-05-01T23:14:46.375Z,3.90
2023-05-01T23:17:14.212Z,4.72
2023-05-01T23:19:43.342Z,4.32
2023-05-01T23:22:12.988Z,4.43
2023-05-01T23:24:44.792Z,3.30
2023-05-01T23:27:13.406Z,7.13
2023-05-01T23:29:41.207Z,4.15
2023-05-01T23:32:09.930Z,5.10
2023-05-01T23:34:37.966Z,3.55
2023-05-01T23:37:06.469Z,2.67
2023-05-01T23:39:33.965Z,3.97
2023-05-01T23:42:03.303Z,3.72
2023-05-01T23:44:30.960Z,6.47
2023-05-01T23:46:58.498Z,2.85
2023-05-01T23:49:26.056Z,3.45
2023-05-01T23:51:53.596Z,5.18
2023-05-01T23:54:21.082Z,3.67
2023-05-01T23:56:48.590Z,4.15
2023-05-01T23:59:17.393Z,3.33
